sensor_id;sensor_type;location;lat;lon;timestamp;pressure;altitude;pressure_sealevel;temperature;humidity
22047;BME280;11187;49.412;20.956;2023-01-26T00:00:40;95563.25;;;-1.63;100.00
22047;BME280;11187;49.412;20.956;2023-01-26T00:03:14;95565.78;;;-1.63;100.00
22047;BME280;11187;49.412;20.956;2023-01-26T00:06:05;95560.78;;;-1.62;100.00
22047;BME280;11187;49.412;20.956;2023-01-26T00:08:41;95565.03;;;-1.61;100.00
22047;BME280;11187;49.412;20.956;2023-01-26T00:11:28;95555.84;;;-1.60;100.00
22047;BME280;11187;49.412;20.956;2023-01-26T00:14:02;95551.56;;;-1.63;100.00
22047;BME280;11187;49.412;20.956;2023-01-26T00:16:48;95561.53;;;-1.64;100.00
22047;BME280;11187;49.412;20.956;2023-01-26T00:19:22;95554.06;;;-1.63;100.00
22047;BME280;11187;49.412;20.956;2023-01-26T00:22:08;95554.91;;;-1.62;100.00
22047;BME280;11187;49.412;20.956;2023-01-26T00:24:42;95554.00;;;-1.64;100.00
22047;BME280;11187;49.412;20.956;2023-01-26T00:27:28;95550.75;;;-1.62;100.00
22047;BME280;11187;49.412;20.956;2023-01-26T00:30:04;95562.38;;;-1.64;100.00
22047;BME280;11187;49.412;20.956;2023-01-26T00:32:51;95545.69;;;-1.63;100.00
22047;BME280;11187;49.412;20.956;2023-01-26T00:35:28;95542.44;;;-1.61;100.00
22047;BME280;11187;49.412;20.956;2023-01-26T00:38:14;95546.53;;;-1.63;100.00
22047;BME280;11187;49.412;20.956;2023-01-26T00:40:48;95548.97;;;-1.64;100.00
22047;BME280;11187;49.412;20.956;2023-01-26T00:43:34;95543.28;;;-1.60;100.00
22047;BME280;11187;49.412;20.956;2023-01-26T00:46:08;95540.81;;;-1.59;100.00
22047;BME280;11187;49.412;20.956;2023-01-26T00:49:01;95544.94;;;-1.61;100.00
22047;BME280;11187;49.412;20.956;2023-01-26T00:51:55;95535.59;;;-1.65;100.00
22047;BME280;11187;49.412;20.956;2023-01-26T00:54:29;95534.56;;;-1.70;100.00
22047;BME280;11187;49.412;20.956;2023-01-26T00:57:23;95527.06;;;-1.70;100.00
22047;BME280;11187;49.412;20.956;2023-01-26T00:59:57;95524.53;;;-1.70;100.00
22047;BME280;11187;49.412;20.956;2023-01-26T01:02:51;95517.69;;;-1.74;100.00
22047;BME280;11187;49.412;20.956;2023-01-26T01:05:27;95530.19;;;-1.76;100.00
22047;BME280;11187;49.412;20.956;2023-01-26T01:08:14;95521.91;;;-1.73;100.00
22047;BME280;11187;49.412;20.956;2023-01-26T01:10:48;95516.84;;;-1.75;100.00
22047;BME280;11187;49.412;20.956;2023-01-26T01:13:34;95508.41;;;-1.77;100.00
22047;BME280;11187;49.412;20.956;2023-01-26T01:16:10;95510.09;;;-1.76;100.00
22047;BME280;11187;49.412;20.956;2023-01-26T01:18:56;95515.13;;;-1.76;100.00
22047;BME280;11187;49.412;20.956;2023-01-26T01:21:30;95502.63;;;-1.74;100.00
22047;BME280;11187;49.412;20.956;2023-01-26T01:24:23;95509.41;;;-1.72;100.00
22047;BME280;11187;49.412;20.956;2023-01-26T01:27:17;95499.31;;;-1.73;100.00
22047;BME280;11187;49.412;20.956;2023-01-26T01:30:12;95492.69;;;-1.71;100.00
22047;BME280;11187;49.412;20.956;2023-01-26T01:33:05;95491.84;;;-1.72;100.00
22047;BME280;11187;49.412;20.956;2023-01-26T01:35:39;95484.22;;;-1.75;100.00
22047;BME280;11187;49.412;20.956;2023-01-26T01:38:26;95483.41;;;-1.74;100.00
22047;BME280;11187;49.412;20.956;2023-01-26T01:41:00;95481.75;;;-1.73;100.00
22047;BME280;11187;49.412;20.956;2023-01-26T01:44:14;95475.88;;;-1.74;100.00
22047;BME280;11187;49.412;20.956;2023-01-26T01:47:18;95471.69;;;-1.73;100.00
22047;BME280;11187;49.412;20.956;2023-01-26T01:49:55;95468.56;;;-1.67;100.00
22047;BME280;11187;49.412;20.956;2023-01-26T01:52:42;95461.97;;;-1.64;100.00
22047;BME280;11187;49.412;20.956;2023-01-26T01:55:16;95456.84;;;-1.67;100.00
22047;BME280;11187;49.412;20.956;2023-01-26T01:58:05;95454.34;;;-1.67;100.00
22047;BME280;11187;49.412;20.956;2023-01-26T02:00:39;95443.47;;;-1.67;100.00
22047;BME280;11187;49.412;20.956;2023-01-26T02:03:33;95450.16;;;-1.68;100.00
22047;BME280;11187;49.412;20.956;2023-01-26T02:06:48;95449.22;;;-1.70;100.00
22047;BME280;11187;49.412;20.956;2023-01-26T02:09:26;95445.00;;;-1.71;100.00
22047;BME280;11187;49.412;20.956;2023-01-26T02:12:39;95442.50;;;-1.71;100.00
22047;BME280;11187;49.412;20.956;2023-01-26T02:15:14;95439.06;;;-1.73;100.00
22047;BME280;11187;49.412;20.956;2023-01-26T02:18:07;95435.78;;;-1.72;100.00
22047;BME280;11187;49.412;20.956;2023-01-26T02:21:04;95433.16;;;-1.75;100.00
22047;BME280;11187;49.412;20.956;2023-01-26T02:26:33;95429.78;;;-1.76;100.00
22047;BME280;11187;49.412;20.956;2023-01-26T02:29:09;95423.91;;;-1.76;100.00
22047;BME280;11187;49.412;20.956;2023-01-26T02:31:56;95422.31;;;-1.74;100.00
22047;BME280;11187;49.412;20.956;2023-01-26T02:34:36;95419.06;;;-1.72;100.00
22047;BME280;11187;49.412;20.956;2023-01-26T02:37:16;95428.28;;;-1.71;100.00
22047;BME280;11187;49.412;20.956;2023-01-26T02:40:08;95434.19;;;-1.70;100.00
22047;BME280;11187;49.412;20.956;2023-01-26T02:42:51;95427.44;;;-1.71;100.00
22047;BME280;11187;49.412;20.956;2023-01-26T02:45:33;95425.75;;;-1.72;100.00
22047;BME280;11187;49.412;20.956;2023-01-26T02:48:13;95422.41;;;-1.71;100.00
22047;BME280;11187;49.412;20.956;2023-01-26T02:50:52;95421.56;;;-1.72;100.00
22047;BME280;11187;49.412;20.956;2023-01-26T02:53:33;95413.19;;;-1.72;100.00
22047;BME280;11187;49.412;20.956;2023-01-26T02:56:12;95417.31;;;-1.73;100.00
22047;BME280;11187;49.412;20.956;2023-01-26T02:58:52;95409.84;;;-1.71;100.00
22047;BME280;11187;49.412;20.956;2023-01-26T03:01:32;95398.06;;;-1.74;100.00
22047;BME280;11187;49.412;20.956;2023-01-26T03:04:12;95400.50;;;-1.75;100.00
22047;BME280;11187;49.412;20.956;2023-01-26T03:06:59;95403.00;;;-1.77;100.00
22047;BME280;11187;49.412;20.956;2023-01-26T03:09:53;95396.25;;;-1.78;100.00
22047;BME280;11187;49.412;20.956;2023-01-26T03:12:47;95393.03;;;-1.74;100.00
22047;BME280;11187;49.412;20.956;2023-01-26T03:15:21;95386.28;;;-1.76;100.00
22047;BME280;11187;49.412;20.956;2023-01-26T03:18:22;95387.81;;;-1.80;100.00
22047;BME280;11187;49.412;20.956;2023-01-26T03:21:15;95389.47;;;-1.80;100.00
22047;BME280;11187;49.412;20.956;2023-01-26T03:24:20;95390.31;;;-1.80;100.00
22047;BME280;11187;49.412;20.956;2023-01-26T03:27:12;95399.50;;;-1.80;100.00
22047;BME280;11187;49.412;20.956;2023-01-26T03:30:10;95398.75;;;-1.78;100.00
22047;BME280;11187;49.412;20.956;2023-01-26T03:32:43;95403.00;;;-1.77;100.00
22047;BME280;11187;49.412;20.956;2023-01-26T03:35:29;95400.44;;;-1.78;100.00
22047;BME280;11187;49.412;20.956;2023-01-26T03:38:04;95400.47;;;-1.77;100.00
22047;BME280;11187;49.412;20.956;2023-01-26T03:40:57;95394.66;;;-1.76;100.00
22047;BME280;11187;49.412;20.956;2023-01-26T03:43:49;95394.75;;;-1.73;100.00
22047;BME280;11187;49.412;20.956;2023-01-26T03:47:00;95395.72;;;-1.69;100.00
22047;BME280;11187;49.412;20.956;2023-01-26T03:49:52;95386.50;;;-1.69;100.00
22047;BME280;11187;49.412;20.956;2023-01-26T03:56:26;95390.75;;;-1.67;100.00
22047;BME280;11187;49.412;20.956;2023-01-26T03:59:19;95389.94;;;-1.66;100.00
22047;BME280;11187;49.412;20.956;2023-01-26T04:02:11;95391.69;;;-1.64;100.00
22047;BME280;11187;49.412;20.956;2023-01-26T04:05:22;95389.16;;;-1.64;100.00
22047;BME280;11187;49.412;20.956;2023-01-26T04:08:54;95384.88;;;-1.68;100.00
22047;BME280;11187;49.412;20.956;2023-01-26T04:11:56;95384.97;;;-1.65;100.00
22047;BME280;11187;49.412;20.956;2023-01-26T04:14:50;95381.56;;;-1.67;100.00
22047;BME280;11187;49.412;20.956;2023-01-26T04:18:06;95379.09;;;-1.65;100.00
22047;BME280;11187;49.412;20.956;2023-01-26T04:21:01;95379.84;;;-1.68;100.00
22047;BME280;11187;49.412;20.956;2023-01-26T04:24:07;95369.75;;;-1.70;100.00
22047;BME280;11187;49.412;20.956;2023-01-26T04:26:46;95376.31;;;-1.73;100.00
22047;BME280;11187;49.412;20.956;2023-01-26T04:29:34;95367.84;;;-1.77;100.00
22047;BME280;11187;49.412;20.956;2023-01-26T04:32:07;95369.47;;;-1.79;100.00
22047;BME280;11187;49.412;20.956;2023-01-26T04:34:53;95367.88;;;-1.75;100.00
22047;BME280;11187;49.412;20.956;2023-01-26T04:37:27;95362.88;;;-1.75;100.00
22047;BME280;11187;49.412;20.956;2023-01-26T04:40:13;95368.69;;;-1.76;100.00
22047;BME280;11187;49.412;20.956;2023-01-26T04:42:47;95368.56;;;-1.81;100.00
22047;BME280;11187;49.412;20.956;2023-01-26T04:45:33;95359.31;;;-1.82;100.00
22047;BME280;11187;49.412;20.956;2023-01-26T04:48:07;95359.38;;;-1.80;100.00
22047;BME280;11187;49.412;20.956;2023-01-26T04:51:04;95361.09;;;-1.79;100.00
22047;BME280;11187;49.412;20.956;2023-01-26T04:53:37;95360.34;;;-1.77;100.00
22047;BME280;11187;49.412;20.956;2023-01-26T04:56:28;95361.22;;;-1.75;100.00
22047;BME280;11187;49.412;20.956;2023-01-26T04:59:05;95358.81;;;-1.72;100.00
22047;BME280;11187;49.412;20.956;2023-01-26T05:01:51;95358.91;;;-1.69;100.00
22047;BME280;11187;49.412;20.956;2023-01-26T05:04:25;95354.75;;;-1.68;100.00
22047;BME280;11187;49.412;20.956;2023-01-26T05:07:11;95359.88;;;-1.65;100.00
22047;BME280;11187;49.412;20.956;2023-01-26T05:09:45;95359.03;;;-1.65;100.00
22047;BME280;11187;49.412;20.956;2023-01-26T05:12:38;95353.09;;;-1.67;100.00
22047;BME280;11187;49.412;20.956;2023-01-26T05:15:15;95354.00;;;-1.65;100.00
22047;BME280;11187;49.412;20.956;2023-01-26T05:18:02;95352.28;;;-1.66;100.00
22047;BME280;11187;49.412;20.956;2023-01-26T05:20:36;95353.94;;;-1.67;100.00
22047;BME280;11187;49.412;20.956;2023-01-26T05:23:29;95356.31;;;-1.72;100.00
22047;BME280;11187;49.412;20.956;2023-01-26T05:26:23;95351.28;;;-1.72;100.00
22047;BME280;11187;49.412;20.956;2023-01-26T05:28:57;95348.84;;;-1.70;100.00
22047;BME280;11187;49.412;20.956;2023-01-26T05:31:43;95348.78;;;-1.72;100.00
22047;BME280;11187;49.412;20.956;2023-01-26T05:34:17;95360.47;;;-1.72;100.00
22047;BME280;11187;49.412;20.956;2023-01-26T05:37:10;95353.72;;;-1.75;100.00
22047;BME280;11187;49.412;20.956;2023-01-26T05:39:44;95348.56;;;-1.78;100.00
22047;BME280;11187;49.412;20.956;2023-01-26T05:42:38;95354.56;;;-1.74;100.00
22047;BME280;11187;49.412;20.956;2023-01-26T05:45:33;95353.72;;;-1.73;100.00
22047;BME280;11187;49.412;20.956;2023-01-26T05:48:07;95360.34;;;-1.75;100.00
22047;BME280;11187;49.412;20.956;2023-01-26T05:50:55;95352.03;;;-1.74;100.00
22047;BME280;11187;49.412;20.956;2023-01-26T05:53:32;95346.88;;;-1.79;100.00
22047;BME280;11187;49.412;20.956;2023-01-26T05:56:18;95345.91;;;-1.82;100.00
22047;BME280;11187;49.412;20.956;2023-01-26T05:58:52;95342.56;;;-1.83;100.00
22047;BME280;11187;49.412;20.956;2023-01-26T06:01:45;95340.25;;;-1.77;100.00
22047;BME280;11187;49.412;20.956;2023-01-26T06:04:19;95340.25;;;-1.77;100.00
22047;BME280;11187;49.412;20.956;2023-01-26T06:07:05;95336.06;;;-1.76;100.00
22047;BME280;11187;49.412;20.956;2023-01-26T06:09:39;95342.75;;;-1.77;100.00
22047;BME280;11187;49.412;20.956;2023-01-26T06:12:33;95341.03;;;-1.78;100.00
22047;BME280;11187;49.412;20.956;2023-01-26T06:15:28;95342.75;;;-1.77;100.00
22047;BME280;11187;49.412;20.956;2023-01-26T06:18:22;95338.44;;;-1.81;100.00
22047;BME280;11187;49.412;20.956;2023-01-26T06:20:59;95333.38;;;-1.82;100.00
22047;BME280;11187;49.412;20.956;2023-01-26T06:23:45;95331.69;;;-1.82;100.00
22047;BME280;11187;49.412;20.956;2023-01-26T06:26:19;95330.84;;;-1.82;100.00
22047;BME280;11187;49.412;20.956;2023-01-26T06:29:05;95342.63;;;-1.81;100.00
22047;BME280;11187;49.412;20.956;2023-01-26T06:31:39;95349.25;;;-1.82;100.00
22047;BME280;11187;49.412;20.956;2023-01-26T06:34:32;95341.72;;;-1.82;100.00
22047;BME280;11187;49.412;20.956;2023-01-26T06:37:26;95348.53;;;-1.79;100.00
22047;BME280;11187;49.412;20.956;2023-01-26T06:40:00;95358.66;;;-1.76;100.00
22047;BME280;11187;49.412;20.956;2023-01-26T06:42:49;95351.91;;;-1.79;100.00
22047;BME280;11187;49.412;20.956;2023-01-26T06:45:23;95350.22;;;-1.78;100.00
22047;BME280;11187;49.412;20.956;2023-01-26T06:48:16;95347.66;;;-1.80;100.00
22047;BME280;11187;49.412;20.956;2023-01-26T06:50:50;95348.63;;;-1.76;100.00
22047;BME280;11187;49.412;20.956;2023-01-26T06:53:54;95345.34;;;-1.74;100.00
22047;BME280;11187;49.412;20.956;2023-01-26T06:56:48;95349.56;;;-1.73;100.00
22047;BME280;11187;49.412;20.956;2023-01-26T06:59:22;95344.59;;;-1.71;100.00
22047;BME280;11187;49.412;20.956;2023-01-26T07:02:18;95332.16;;;-1.68;100.00
22047;BME280;11187;49.412;20.956;2023-01-26T07:05:12;95338.88;;;-1.67;100.00
22047;BME280;11187;49.412;20.956;2023-01-26T07:08:06;95339.03;;;-1.62;100.00
22047;BME280;11187;49.412;20.956;2023-01-26T07:10:41;95341.69;;;-1.58;100.00
22047;BME280;11187;49.412;20.956;2023-01-26T07:13:27;95342.59;;;-1.56;100.00
22047;BME280;11187;49.412;20.956;2023-01-26T07:18:47;95342.59;;;-1.56;100.00
22047;BME280;11187;49.412;20.956;2023-01-26T07:21:21;95343.50;;;-1.54;100.00
22047;BME280;11187;49.412;20.956;2023-01-26T07:24:08;95334.44;;;-1.49;100.00
22047;BME280;11187;49.412;20.956;2023-01-26T07:26:42;95332.91;;;-1.43;100.00
22047;BME280;11187;49.412;20.956;2023-01-26T07:29:28;95327.94;;;-1.42;100.00
22047;BME280;11187;49.412;20.956;2023-01-26T07:32:05;95332.91;;;-1.43;100.00
22047;BME280;11187;49.412;20.956;2023-01-26T07:34:51;95327.94;;;-1.42;100.00
22047;BME280;11187;49.412;20.956;2023-01-26T07:37:29;95326.28;;;-1.41;100.00
22047;BME280;11187;49.412;20.956;2023-01-26T07:40:16;95328.00;;;-1.40;100.00
22047;BME280;11187;49.412;20.956;2023-01-26T07:42:49;95322.97;;;-1.40;100.00
22047;BME280;11187;49.412;20.956;2023-01-26T07:45:51;95323.91;;;-1.37;100.00
22047;BME280;11187;49.412;20.956;2023-01-26T07:48:44;95323.16;;;-1.34;100.00
22047;BME280;11187;49.412;20.956;2023-01-26T07:51:39;95331.72;;;-1.28;100.00
22047;BME280;11187;49.412;20.956;2023-01-26T07:54:13;95334.28;;;-1.26;100.00
22047;BME280;11187;49.412;20.956;2023-01-26T07:57:02;95329.25;;;-1.26;100.00
22047;BME280;11187;49.412;20.956;2023-01-26T07:59:39;95326.75;;;-1.26;100.00
22047;BME280;11187;49.412;20.956;2023-01-26T08:02:25;95337.69;;;-1.24;100.00
22047;BME280;11187;49.412;20.956;2023-01-26T08:04:59;95331.84;;;-1.23;100.00
22047;BME280;11187;49.412;20.956;2023-01-26T08:07:56;95333.59;;;-1.22;100.00
22047;BME280;11187;49.412;20.956;2023-01-26T08:10:30;95325.22;;;-1.21;100.00
22047;BME280;11187;49.412;20.956;2023-01-26T08:13:16;95332.81;;;-1.19;100.00
22047;BME280;11187;49.412;20.956;2023-01-26T08:16:06;95333.78;;;-1.16;100.00
22047;BME280;11187;49.412;20.956;2023-01-26T08:19:00;95332.19;;;-1.12;100.00
22047;BME280;11187;49.412;20.956;2023-01-26T08:21:54;95334.78;;;-1.09;100.00
22047;BME280;11187;49.412;20.956;2023-01-26T08:24:29;95332.38;;;-1.06;100.00
22047;BME280;11187;49.412;20.956;2023-01-26T08:27:22;95329.19;;;-1.00;100.00
22047;BME280;11187;49.412;20.956;2023-01-26T08:30:17;95322.53;;;-0.98;100.00
22047;BME280;11187;49.412;20.956;2023-01-26T08:33:10;95324.22;;;-0.99;100.00
22047;BME280;11187;49.412;20.956;2023-01-26T08:36:07;95326.78;;;-0.97;100.00
22047;BME280;11187;49.412;20.956;2023-01-26T08:38:40;95328.53;;;-0.93;100.00
22047;BME280;11187;49.412;20.956;2023-01-26T08:41:34;95326.97;;;-0.90;100.00
22047;BME280;11187;49.412;20.956;2023-01-26T08:44:09;95329.50;;;-0.90;100.00
22047;BME280;11187;49.412;20.956;2023-01-26T08:46:55;95338.88;;;-0.84;100.00
22047;BME280;11187;49.412;20.956;2023-01-26T08:49:29;95326.41;;;-0.81;100.00
22047;BME280;11187;49.412;20.956;2023-01-26T08:52:15;95328.13;;;-0.78;99.95
22047;BME280;11187;49.412;20.956;2023-01-26T08:54:49;95322.16;;;-0.82;99.70
22047;BME280;11187;49.412;20.956;2023-01-26T08:57:35;95322.28;;;-0.79;100.00
22047;BME280;11187;49.412;20.956;2023-01-26T09:00:09;95319.06;;;-0.73;100.00
22047;BME280;11187;49.412;20.956;2023-01-26T09:02:58;95325.94;;;-0.68;100.00
22047;BME280;11187;49.412;20.956;2023-01-26T09:05:37;95328.59;;;-0.63;99.97
22047;BME280;11187;49.412;20.956;2023-01-26T09:08:31;95327.03;;;-0.58;99.59
22047;BME280;11187;49.412;20.956;2023-01-26T09:11:24;95323.75;;;-0.55;99.59
22047;BME280;11187;49.412;20.956;2023-01-26T09:14:18;95318.00;;;-0.51;99.78
22047;BME280;11187;49.412;20.956;2023-01-26T09:16:52;95318.06;;;-0.50;99.49
22047;BME280;11187;49.412;20.956;2023-01-26T09:19:38;95315.53;;;-0.50;99.19
22047;BME280;11187;49.412;20.956;2023-01-26T09:22:12;95313.03;;;-0.48;99.22
22047;BME280;11187;49.412;20.956;2023-01-26T09:24:58;95310.53;;;-0.48;98.93
22047;BME280;11187;49.412;20.956;2023-01-26T09:27:34;95300.53;;;-0.47;99.17
22047;BME280;11187;49.412;20.956;2023-01-26T09:30:21;95300.56;;;-0.45;98.81
22047;BME280;11187;49.412;20.956;2023-01-26T09:32:57;95300.53;;;-0.47;98.43
22047;BME280;11187;49.412;20.956;2023-01-26T09:35:52;95292.03;;;-0.50;98.55
22047;BME280;11187;49.412;20.956;2023-01-26T09:38:46;95284.53;;;-0.49;98.49
22047;BME280;11187;49.412;20.956;2023-01-26T09:48:03;95282.91;;;-0.47;98.25
22047;BME280;11187;49.412;20.956;2023-01-26T09:54:05;95278.25;;;-0.33;98.19
22047;BME280;11187;49.412;20.956;2023-01-26T09:57:18;95272.44;;;-0.30;98.31
22047;BME280;11187;49.412;20.956;2023-01-26T10:06:18;95267.56;;;-0.24;97.43
22047;BME280;11187;49.412;20.956;2023-01-26T10:08:59;95265.13;;;-0.21;97.79
22047;BME280;11187;49.412;20.956;2023-01-26T10:11:57;95261.03;;;-0.17;97.48
22047;BME280;11187;49.412;20.956;2023-01-26T10:15:14;95265.31;;;-0.13;97.54
22047;BME280;11187;49.412;20.956;2023-01-26T10:18:22;95262.81;;;-0.13;97.45
22047;BME280;11187;49.412;20.956;2023-01-26T10:21:19;95252.75;;;-0.12;97.39
22047;BME280;11187;49.412;20.956;2023-01-26T10:23:54;95245.25;;;-0.10;97.33
22047;BME280;11187;49.412;20.956;2023-01-26T10:26:55;95246.16;;;-0.08;97.39
22047;BME280;11187;49.412;20.956;2023-01-26T10:29:30;95242.91;;;-0.04;97.39
22047;BME280;11187;49.412;20.956;2023-01-26T10:32:17;95239.66;;;0.02;97.11
22047;BME280;11187;49.412;20.956;2023-01-26T10:34:53;95243.06;;;0.04;97.27
22047;BME280;11187;49.412;20.956;2023-01-26T10:37:39;95247.31;;;0.06;97.15
22047;BME280;11187;49.412;20.956;2023-01-26T10:40:13;95236.47;;;0.09;97.45
22047;BME280;11187;49.412;20.956;2023-01-26T10:43:00;95239.09;;;0.12;97.10
22047;BME280;11187;49.412;20.956;2023-01-26T10:45:44;95240.09;;;0.18;97.33
22047;BME280;11187;49.412;20.956;2023-01-26T10:48:31;95239.31;;;0.23;97.22
22047;BME280;11187;49.412;20.956;2023-01-26T10:51:15;95244.44;;;0.26;97.35
22047;BME280;11187;49.412;20.956;2023-01-26T10:54:18;95236.00;;;0.24;97.25
22047;BME280;11187;49.412;20.956;2023-01-26T10:59:57;95231.81;;;0.24;97.05
22047;BME280;11187;49.412;20.956;2023-01-26T11:06:16;95218.31;;;0.22;97.03
22047;BME280;11187;49.412;20.956;2023-01-26T11:08:50;95220.78;;;0.19;97.40
22047;BME280;11187;49.412;20.956;2023-01-26T11:11:37;95209.03;;;0.19;96.88
22047;BME280;11187;49.412;20.956;2023-01-26T11:14:18;95209.88;;;0.18;96.92
22047;BME280;11187;49.412;20.956;2023-01-26T11:17:14;95209.09;;;0.21;96.75
22047;BME280;11187;49.412;20.956;2023-01-26T11:23:02;95197.28;;;0.18;96.50
22047;BME280;11187;49.412;20.956;2023-01-26T11:37:37;95180.66;;;0.25;96.57
22047;BME280;11187;49.412;20.956;2023-01-26T11:52:48;95167.16;;;0.23;96.62
22047;BME280;11187;49.412;20.956;2023-01-26T11:58:35;95162.16;;;0.25;97.43
22047;BME280;11187;49.412;20.956;2023-01-26T12:01:32;95158.84;;;0.26;97.76
22047;BME280;11187;49.412;20.956;2023-01-26T12:04:13;95154.63;;;0.26;97.16
22047;BME280;11187;49.412;20.956;2023-01-26T12:07:22;95151.19;;;0.21;96.35
22047;BME280;11187;49.412;20.956;2023-01-26T12:10:01;95150.34;;;0.20;97.07
22047;BME280;11187;49.412;20.956;2023-01-26T12:13:08;95154.44;;;0.17;96.60
22047;BME280;11187;49.412;20.956;2023-01-26T12:15:51;95152.72;;;0.16;96.53
22047;BME280;11187;49.412;20.956;2023-01-26T12:18:48;95147.69;;;0.14;96.52
22047;BME280;11187;49.412;20.956;2023-01-26T12:21:37;95135.94;;;0.15;96.94
22047;BME280;11187;49.412;20.956;2023-01-26T12:24:35;95132.63;;;0.17;96.99
22047;BME280;11187;49.412;20.956;2023-01-26T12:27:34;95136.06;;;0.21;97.31
22047;BME280;11187;49.412;20.956;2023-01-26T12:30:35;95133.56;;;0.21;96.65
22047;BME280;11187;49.412;20.956;2023-01-26T12:33:10;95123.47;;;0.21;96.78
22047;BME280;11187;49.412;20.956;2023-01-26T12:44:57;95121.75;;;0.18;96.54
22047;BME280;11187;49.412;20.956;2023-01-26T12:48:02;95121.66;;;0.15;96.63
22047;BME280;11187;49.412;20.956;2023-01-26T12:50:46;95125.03;;;0.14;96.81
22047;BME280;11187;49.412;20.956;2023-01-26T12:56:24;95125.03;;;0.14;97.14
22047;BME280;11187;49.412;20.956;2023-01-26T12:59:39;95116.72;;;0.18;97.61
22047;BME280;11187;49.412;20.956;2023-01-26T13:02:23;95125.16;;;0.20;97.17
22047;BME280;11187;49.412;20.956;2023-01-26T13:05:29;95124.22;;;0.17;97.08
22047;BME280;11187;49.412;20.956;2023-01-26T13:11:05;95124.09;;;0.11;97.01
22047;BME280;11187;49.412;20.956;2023-01-26T13:13:54;95124.03;;;0.08;96.93
22047;BME280;11187;49.412;20.956;2023-01-26T13:25:29;95125.63;;;0.04;97.37
22047;BME280;11187;49.412;20.956;2023-01-26T13:28:11;95119.75;;;0.04;97.18
22047;BME280;11187;49.412;20.956;2023-01-26T13:31:05;95119.69;;;0.01;97.14
22047;BME280;11187;49.412;20.956;2023-01-26T13:33:40;95114.56;;;-0.04;97.15
22047;BME280;11187;49.412;20.956;2023-01-26T13:36:32;95110.38;;;-0.04;97.02
22047;BME280;11187;49.412;20.956;2023-01-26T13:42:19;95101.88;;;-0.07;97.64
22047;BME280;11187;49.412;20.956;2023-01-26T13:45:34;95103.56;;;-0.08;97.70
22047;BME280;11187;49.412;20.956;2023-01-26T13:51:33;95101.63;;;-0.19;96.95
22047;BME280;11187;49.412;20.956;2023-01-26T13:54:11;95103.28;;;-0.20;97.53
22047;BME280;11187;49.412;20.956;2023-01-26T13:57:05;95106.66;;;-0.19;97.89
22047;BME280;11187;49.412;20.956;2023-01-26T13:59:50;95110.84;;;-0.20;98.01
22047;BME280;11187;49.412;20.956;2023-01-26T14:02:38;95104.94;;;-0.21;98.28
22047;BME280;11187;49.412;20.956;2023-01-26T14:05:20;95109.06;;;-0.24;97.89
22047;BME280;11187;49.412;20.956;2023-01-26T14:08:12;95104.66;;;-0.33;97.64
22047;BME280;11187;49.412;20.956;2023-01-26T14:10:48;95106.34;;;-0.33;97.72
22047;BME280;11187;49.412;20.956;2023-01-26T14:13:43;95105.50;;;-0.34;97.63
22047;BME280;11187;49.412;20.956;2023-01-26T14:16:28;95112.16;;;-0.36;98.14
22047;BME280;11187;49.412;20.956;2023-01-26T14:19:22;95112.06;;;-0.39;98.29
22047;BME280;11187;49.412;20.956;2023-01-26T14:22:16;95106.19;;;-0.39;98.54
22047;BME280;11187;49.412;20.956;2023-01-26T14:25:10;95107.81;;;-0.42;98.20
22047;BME280;11187;49.412;20.956;2023-01-26T14:28:04;95109.28;;;-0.51;97.72
22047;BME280;11187;49.412;20.956;2023-01-26T14:30:38;95116.78;;;-0.53;97.94
22047;BME280;11187;49.412;20.956;2023-01-26T14:33:33;95113.38;;;-0.55;98.17
22047;BME280;11187;49.412;20.956;2023-01-26T14:36:29;95118.38;;;-0.56;97.88
22047;BME280;11187;49.412;20.956;2023-01-26T14:39:20;95112.47;;;-0.58;98.00
22047;BME280;11187;49.412;20.956;2023-01-26T14:42:19;95109.06;;;-0.60;98.04
22047;BME280;11187;49.412;20.956;2023-01-26T14:44:52;95117.50;;;-0.58;98.78
22047;BME280;11187;49.412;20.956;2023-01-26T14:47:39;95117.59;;;-0.54;98.71
22047;BME280;11187;49.412;20.956;2023-01-26T14:50:19;95112.59;;;-0.52;98.50
22047;BME280;11187;49.412;20.956;2023-01-26T14:53:29;95121.00;;;-0.52;98.43
22047;BME280;11187;49.412;20.956;2023-01-26T14:56:02;95120.91;;;-0.55;98.46
22047;BME280;11187;49.412;20.956;2023-01-26T14:58:56;95117.44;;;-0.60;98.15
22047;BME280;11187;49.412;20.956;2023-01-26T15:01:30;95122.41;;;-0.63;97.94
22047;BME280;11187;49.412;20.956;2023-01-26T15:04:33;95113.09;;;-0.67;98.13
22047;BME280;11187;49.412;20.956;2023-01-26T15:07:36;95123.94;;;-0.68;98.51
22047;BME280;11187;49.412;20.956;2023-01-26T15:10:39;95117.25;;;-0.68;99.38
22047;BME280;11187;49.412;20.956;2023-01-26T15:16:05;95118.69;;;-0.77;99.61
22047;BME280;11187;49.412;20.956;2023-01-26T15:18:40;95111.97;;;-0.78;100.00
22047;BME280;11187;49.412;20.956;2023-01-26T15:21:37;95116.09;;;-0.80;100.00
22047;BME280;11187;49.412;20.956;2023-01-26T15:24:33;95110.28;;;-0.79;100.00
22047;BME280;11187;49.412;20.956;2023-01-26T15:27:06;95112.81;;;-0.78;100.00
22047;BME280;11187;49.412;20.956;2023-01-26T15:29:57;95119.47;;;-0.80;100.00
22047;BME280;11187;49.412;20.956;2023-01-26T15:32:38;95116.03;;;-0.83;100.00
22047;BME280;11187;49.412;20.956;2023-01-26T15:35:33;95120.25;;;-0.82;100.00
22047;BME280;11187;49.412;20.956;2023-01-26T15:38:27;95117.72;;;-0.82;100.00
22047;BME280;11187;49.412;20.956;2023-01-26T15:41:21;95112.69;;;-0.84;100.00
22047;BME280;11187;49.412;20.956;2023-01-26T15:44:17;95124.41;;;-0.83;100.00
22047;BME280;11187;49.412;20.956;2023-01-26T15:46:50;95120.97;;;-0.87;100.00
22047;BME280;11187;49.412;20.956;2023-01-26T15:49:40;95118.38;;;-0.90;100.00
22047;BME280;11187;49.412;20.956;2023-01-26T15:52:16;95117.53;;;-0.90;100.00
22047;BME280;11187;49.412;20.956;2023-01-26T15:55:23;95112.53;;;-0.89;100.00
22047;BME280;11187;49.412;20.956;2023-01-26T15:57:57;95122.59;;;-0.89;100.00
22047;BME280;11187;49.412;20.956;2023-01-26T16:00:44;95125.97;;;-0.88;100.00